Time;durP1;ratioP1;P1;durP2;ratioP2;P2;SDS_P1;SDS_P2;PMS_P1;PMS_P2;Temp;Humidity;BMP_temperature;BMP_pressure;BME280_temperature;BME280_humidity;BME280_pressure;Samples;Min_cycle;Max_cycle;Signal;HPM_P1;HPM_P2
2022/09/01 00:01:29;;;;;;;3.75;1.85;;;15.20;99.90;;;;;;5003321;28;20116;-74
2022/09/01 00:04:02;;;;;;;3.45;2.20;;;15.10;99.90;;;;;;5008166;28;20046;-72
2022/09/01 00:06:29;;;;;;;4.07;2.10;;;15.10;99.90;;;;;;5008002;28;20417;-72
2022/09/01 00:08:58;;;;;;;4.82;1.88;;;15.10;99.90;;;;;;5005315;28;20147;-72
2022/09/01 00:11:28;;;;;;;3.53;1.85;;;15.10;99.90;;;;;;5013618;28;20069;-72
2022/09/01 00:13:58;;;;;;;5.47;1.80;;;15.10;99.90;;;;;;5012223;28;20050;-72
2022/09/01 00:16:24;;;;;;;5.25;1.90;;;15.10;99.90;;;;;;5011222;28;20080;-73
2022/09/01 00:18:52;;;;;;;3.22;1.80;;;15.00;99.90;;;;;;4997941;28;20061;-71
2022/09/01 00:21:29;;;;;;;2.70;1.70;;;15.10;99.90;;;;;;5011632;28;20053;-73
2022/09/01 00:23:56;;;;;;;5.78;2.10;;;15.10;99.90;;;;;;5010276;28;20046;-73
2022/09/01 00:26:30;;;;;;;2.95;1.70;;;15.00;99.90;;;;;;5013029;28;20053;-73
2022/09/01 00:28:57;;;;;;;4.55;1.60;;;15.00;99.90;;;;;;5008648;28;20120;-73
2022/09/01 00:31:29;;;;;;;3.65;1.83;;;15.10;99.90;;;;;;5012078;28;20108;-73
2022/09/01 00:33:55;;;;;;;2.33;1.48;;;15.00;99.90;;;;;;5012527;28;20435;-71
2022/09/01 00:36:21;;;;;;;4.43;1.70;;;15.00;99.90;;;;;;4980322;28;20133;-73
2022/09/01 00:38:49;;;;;;;2.53;1.42;;;15.00;99.90;;;;;;5012414;28;20390;-71
2022/09/01 00:41:22;;;;;;;4.93;1.92;;;15.00;99.90;;;;;;5007854;28;20413;-72
2022/09/01 00:43:59;;;;;;;2.92;1.65;;;15.00;99.90;;;;;;5004564;28;20046;-74
2022/09/01 00:46:35;;;;;;;5.95;1.65;;;14.90;99.90;;;;;;5006293;28;20080;-74
2022/09/01 00:49:50;;;;;;;2.67;1.80;;;14.90;99.90;;;;;;5011588;28;20568;-73
2022/09/01 00:52:26;;;;;;;5.35;1.80;;;14.90;99.90;;;;;;4969192;28;20054;-72
2022/09/01 00:54:56;;;;;;;3.30;1.52;;;14.90;99.90;;;;;;5031975;22;20140;-73
2022/09/01 00:57:23;;;;;;;2.97;1.83;;;14.90;99.90;;;;;;5027131;28;20049;-73
2022/09/01 00:59:56;;;;;;;3.58;1.60;;;14.90;99.90;;;;;;5033185;28;20041;-72
2022/09/01 01:02:23;;;;;;;2.95;1.70;;;15.00;99.90;;;;;;5030069;28;20069;-74
2022/09/01 01:04:51;;;;;;;5.35;2.10;;;15.00;99.90;;;;;;5032185;28;20037;-73
2022/09/01 01:07:21;;;;;;;3.05;1.60;;;15.00;99.90;;;;;;5013697;28;20103;-74
2022/09/01 01:09:47;;;;;;;2.60;1.58;;;15.00;99.90;;;;;;5010472;28;20061;-70
2022/09/01 01:12:17;;;;;;;3.05;1.60;;;15.00;99.90;;;;;;5016294;28;20133;-73
2022/09/01 01:14:48;;;;;;;3.60;1.83;;;15.00;99.90;;;;;;5004543;28;20081;-74
2022/09/01 01:17:16;;;;;;;2.45;1.50;;;15.00;99.90;;;;;;5008772;28;20129;-73
2022/09/01 01:23:01;;;;;;;2.75;1.52;;;15.00;99.90;;;;;;5009827;28;20060;-73
2022/09/01 01:25:56;;;;;;;2.80;1.70;;;15.00;99.90;;;;;;5009898;28;20461;-72
2022/09/01 01:28:40;;;;;;;2.15;1.40;;;15.00;99.90;;;;;;5007996;28;20116;-73
2022/09/01 01:31:11;;;;;;;3.80;1.50;;;15.00;99.90;;;;;;5021268;28;20511;-72
2022/09/01 01:33:43;;;;;;;4.07;1.58;;;15.00;99.90;;;;;;5011189;28;20038;-73
2022/09/01 01:36:25;;;;;;;3.17;1.60;;;15.10;99.90;;;;;;5010370;28;20454;-74
2022/09/01 01:38:54;;;;;;;4.90;1.58;;;15.10;99.90;;;;;;5020155;28;20038;-73
2022/09/01 01:41:20;;;;;;;2.50;1.50;;;15.10;99.90;;;;;;5007278;28;20100;-72
2022/09/01 01:43:47;;;;;;;2.65;1.42;;;15.10;99.90;;;;;;5012734;28;20494;-72
2022/09/01 01:46:14;;;;;;;2.33;1.50;;;15.10;99.90;;;;;;5011395;28;20057;-73
2022/09/01 01:48:41;;;;;;;2.92;1.58;;;15.10;99.90;;;;;;5011824;28;20053;-73
2022/09/01 01:51:09;;;;;;;3.80;1.70;;;15.10;99.90;;;;;;5010170;28;20038;-73
2022/09/01 01:53:35;;;;;;;;;;;15.10;99.90;;;;;;5006467;28;20426;-72
2022/09/01 01:56:01;;;;;;;2.10;1.70;;;15.10;99.90;;;;;;5028366;28;20026;-73
2022/09/01 01:58:31;;;;;;;2.20;1.60;;;15.20;99.90;;;;;;5008748;28;20046;-72
2022/09/01 02:00:57;;;;;;;4.90;1.58;;;15.20;99.90;;;;;;5009264;28;20040;-74
2022/09/01 02:03:29;;;;;;;4.95;1.55;;;15.20;99.90;;;;;;5030901;28;20041;-72
2022/09/01 02:06:03;;;;;;;3.50;1.90;;;15.20;99.90;;;;;;5012843;28;20506;-73
2022/09/01 02:08:29;;;;;;;4.07;2.10;;;15.20;99.90;;;;;;5012691;28;20045;-72
2022/09/01 02:10:56;;;;;;;3.88;1.83;;;15.20;99.90;;;;;;4989341;28;20050;-72
2022/09/01 02:13:29;;;;;;;6.53;1.70;;;15.20;99.90;;;;;;5030293;28;20062;-73
2022/09/01 02:15:58;;;;;;;2.95;1.60;;;15.20;99.90;;;;;;5028656;28;20037;-72
2022/09/01 02:18:35;;;;;;;3.63;1.63;;;15.20;99.90;;;;;;5014985;28;20050;-73
2022/09/01 02:21:08;;;;;;;5.93;1.60;;;15.20;99.90;;;;;;5028582;28;20053;-73
2022/09/01 02:23:35;;;;;;;3.95;1.60;;;15.20;99.90;;;;;;5031821;28;20084;-72
2022/09/01 02:26:01;;;;;;;4.15;1.90;;;15.20;99.90;;;;;;5033035;28;20156;-72
2022/09/01 02:28:30;;;;;;;7.03;2.17;;;15.20;99.90;;;;;;5014264;28;20484;-73
2022/09/01 02:30:58;;;;;;;2.35;1.80;;;15.10;99.90;;;;;;5023503;28;20145;-73
2022/09/01 02:33:25;;;;;;;5.30;2.20;;;15.10;99.90;;;;;;5015943;28;20049;-73
2022/09/01 02:35:57;;;;;;;2.72;1.90;;;15.10;99.90;;;;;;4997887;28;20046;-73
2022/09/01 02:38:25;;;;;;;2.88;1.80;;;15.10;99.90;;;;;;5012540;28;20049;-72
2022/09/01 02:40:52;;;;;;;2.75;1.85;;;15.00;99.90;;;;;;5029670;28;20049;-73
2022/09/01 02:43:19;;;;;;;3.70;1.95;;;15.00;99.90;;;;;;5010434;28;20050;-73
2022/09/01 02:45:53;;;;;;;2.95;1.92;;;15.00;99.90;;;;;;5027217;28;20473;-74
2022/09/01 02:48:21;;;;;;;3.58;1.90;;;15.00;99.90;;;;;;5032785;28;20049;-72
2022/09/01 02:50:48;;;;;;;2.72;1.88;;;14.90;99.90;;;;;;5026834;28;20115;-73
2022/09/01 02:53:18;;;;;;;3.88;2.20;;;14.90;99.90;;;;;;5014771;28;20101;-73
2022/09/01 02:55:45;;;;;;;2.92;2.10;;;14.80;99.90;;;;;;5025427;28;20519;-72
2022/09/01 02:58:15;;;;;;;3.40;1.92;;;14.80;99.90;;;;;;4996194;28;20504;-72
2022/09/01 03:00:44;;;;;;;6.25;2.20;;;14.70;99.90;;;;;;5011330;28;20057;-72
2022/09/01 03:03:16;;;;;;;4.25;2.03;;;14.70;99.90;;;;;;5032372;28;20037;-73
2022/09/01 03:05:42;;;;;;;3.78;2.45;;;14.70;99.90;;;;;;5007887;28;20033;-73
2022/09/01 03:08:14;;;;;;;4.00;2.03;;;14.70;99.90;;;;;;4995451;28;20040;-73
2022/09/01 03:10:42;;;;;;;2.30;1.88;;;14.60;99.90;;;;;;5011666;28;20476;-73
2022/09/01 03:13:17;;;;;;;8.40;4.57;;;14.60;99.90;;;;;;5029385;28;20037;-73
2022/09/01 03:15:43;;;;;;;5.40;3.95;;;14.60;99.90;;;;;;5024740;28;20310;-72
2022/09/01 03:18:10;;;;;;;3.03;2.30;;;14.60;99.90;;;;;;5029561;28;20041;-73
2022/09/01 03:20:42;;;;;;;6.78;2.25;;;14.60;99.90;;;;;;5011596;28;20137;-73
2022/09/01 03:23:14;;;;;;;2.35;1.80;;;14.60;99.90;;;;;;5013507;28;20091;-74
2022/09/01 03:25:42;;;;;;;4.82;2.15;;;14.50;99.90;;;;;;5011985;28;20091;-72
2022/09/01 03:28:08;;;;;;;3.28;2.13;;;14.50;99.90;;;;;;5027266;28;20053;-73
2022/09/01 03:30:38;;;;;;;3.55;1.95;;;14.50;99.90;;;;;;5008670;28;20045;-73
2022/09/01 03:33:05;;;;;;;2.50;1.88;;;14.50;99.90;;;;;;5028626;28;20098;-74
2022/09/01 03:35:31;;;;;;;3.83;1.98;;;14.50;99.90;;;;;;5030481;28;20455;-71
2022/09/01 03:38:00;;;;;;;5.03;2.00;;;14.40;99.90;;;;;;5028979;28;20042;-72
2022/09/01 03:40:31;;;;;;;3.13;2.30;;;14.40;99.90;;;;;;5025767;28;20048;-73
2022/09/01 03:43:03;;;;;;;3.15;2.00;;;14.40;99.90;;;;;;5032049;28;20038;-72
2022/09/01 03:45:37;;;;;;;5.40;2.30;;;14.40;99.90;;;;;;5030276;28;20037;-72
2022/09/01 03:48:08;;;;;;;3.33;1.90;;;14.40;99.90;;;;;;5033177;28;20484;-73
2022/09/01 03:50:45;;;;;;;2.80;1.83;;;14.40;99.90;;;;;;5033943;28;20046;-73
2022/09/01 03:53:14;;;;;;;2.63;1.80;;;14.40;99.90;;;;;;5013711;28;20556;-73
2022/09/01 03:55:40;;;;;;;4.18;2.45;;;14.40;99.90;;;;;;5024179;28;20057;-72
2022/09/01 03:58:08;;;;;;;4.47;2.30;;;14.40;99.90;;;;;;5032394;28;20048;-73
2022/09/01 04:00:41;;;;;;;7.25;2.28;;;14.40;99.90;;;;;;5031310;28;20052;-73
2022/09/01 04:03:11;;;;;;;2.83;2.13;;;14.40;99.90;;;;;;5014318;28;20038;-72
2022/09/01 04:05:43;;;;;;;3.55;2.22;;;14.40;99.90;;;;;;5015468;28;20049;-71
2022/09/01 04:08:11;;;;;;;5.13;2.25;;;14.60;99.90;;;;;;5015145;28;20041;-73
2022/09/01 04:10:48;;;;;;;3.42;2.03;;;14.30;99.90;;;;;;5015388;28;20199;-73
2022/09/01 04:13:18;;;;;;;3.13;2.05;;;14.30;99.90;;;;;;5022775;28;20038;-73
2022/09/01 04:15:44;;;;;;;5.43;2.08;;;14.30;99.90;;;;;;5009660;28;20037;-73
2022/09/01 04:18:18;;;;;;;4.22;2.10;;;14.20;99.90;;;;;;4990782;28;20065;-74
2022/09/01 04:20:47;;;;;;;5.65;2.10;;;14.20;99.90;;;;;;5030717;28;20045;-72
2022/09/01 04:23:32;;;;;;;2.78;1.88;;;14.20;99.90;;;;;;5028582;28;20120;-72
2022/09/01 04:26:07;;;;;;;4.13;2.13;;;14.10;99.90;;;;;;5027005;28;20127;-73
2022/09/01 04:28:39;;;;;;;3.60;2.60;;;14.10;99.90;;;;;;5013043;28;20550;-72
2022/09/01 04:31:08;;;;;;;4.88;2.10;;;14.10;99.90;;;;;;5025323;28;20045;-72
2022/09/01 04:33:38;;;;;;;3.38;2.33;;;14.00;99.90;;;;;;5013464;28;20053;-73
2022/09/01 04:36:18;;;;;;;4.55;2.45;;;14.00;99.90;;;;;;5011309;28;20049;-73
2022/09/01 04:38:47;;;;;;;5.63;2.50;;;14.00;99.90;;;;;;5012048;28;20070;-72
2022/09/01 04:41:19;;;;;;;4.00;2.17;;;14.00;99.90;;;;;;5017368;28;20121;-74
2022/09/01 04:43:47;;;;;;;4.78;2.30;;;14.00;99.90;;;;;;5030061;28;20057;-73
2022/09/01 04:46:16;;;;;;;3.80;2.45;;;13.90;99.90;;;;;;5028650;28;20112;-72
2022/09/01 04:48:44;;;;;;;4.30;2.33;;;13.90;99.90;;;;;;5030638;28;20075;-72
2022/09/01 04:51:11;;;;;;;5.55;2.30;;;13.90;99.90;;;;;;5027234;28;20056;-73
2022/09/01 04:53:39;;;;;;;3.85;2.67;;;13.90;99.90;;;;;;5033042;28;20064;-72
2022/09/01 04:56:06;;;;;;;3.72;2.47;;;13.90;99.90;;;;;;5031131;28;20061;-72
2022/09/01 04:58:32;;;;;;;3.50;2.40;;;13.90;99.90;;;;;;5028525;28;20045;-73
2022/09/01 05:00:59;;;;;;;4.07;2.35;;;13.90;99.90;;;;;;5012495;28;20301;-74
2022/09/01 05:03:25;;;;;;;3.67;2.55;;;13.90;99.90;;;;;;5012587;28;20080;-72
2022/09/01 05:05:52;;;;;;;3.20;2.40;;;13.90;99.90;;;;;;5030837;28;20037;-72
2022/09/01 05:08:21;;;;;;;6.35;2.50;;;13.90;99.90;;;;;;5013077;28;20049;-73
2022/09/01 05:10:52;;;;;;;4.82;2.30;;;14.00;99.90;;;;;;5024059;28;20443;-73
2022/09/01 05:13:28;;;;;;;4.43;2.20;;;14.00;99.90;;;;;;5027562;28;20041;-73
2022/09/01 05:16:11;;;;;;;3.50;2.40;;;14.00;99.90;;;;;;5029072;28;20049;-72
2022/09/01 05:18:39;;;;;;;4.13;2.40;;;14.00;99.90;;;;;;5033202;28;20121;-73
2022/09/01 05:21:08;;;;;;;;;;;14.00;99.90;;;;;;5030193;28;20131;-73
2022/09/01 05:23:35;;;;;;;6.43;2.35;;;14.10;99.90;;;;;;5011011;28;19929;-74
2022/09/01 05:26:05;;;;;;;6.00;2.60;;;14.10;99.90;;;;;;5028163;28;20382;-72
2022/09/01 05:28:31;;;;;;;4.30;2.58;;;14.20;99.90;;;;;;5005347;28;20041;-73
2022/09/01 05:30:59;;;;;;;4.57;2.40;;;14.20;99.90;;;;;;5028968;28;20076;-73
2022/09/01 05:33:25;;;;;;;6.13;2.50;;;14.20;99.90;;;;;;5014178;28;20053;-72
2022/09/01 05:35:54;;;;;;;3.53;2.47;;;14.20;99.90;;;;;;5030660;28;20049;-73
2022/09/01 05:38:20;;;;;;;3.20;2.20;;;14.20;99.90;;;;;;5014602;28;20049;-71
2022/09/01 05:41:02;;;;;;;4.38;2.45;;;14.20;99.90;;;;;;5026867;28;20045;-73
2022/09/01 05:43:31;;;;;;;4.32;2.42;;;14.30;99.90;;;;;;5029135;28;20099;-74
2022/09/01 05:45:57;;;;;;;4.72;2.58;;;14.30;99.90;;;;;;5008872;28;20044;-73
2022/09/01 05:48:23;;;;;;;6.13;2.70;;;14.30;99.90;;;;;;5024798;28;20448;-73
2022/09/01 05:50:55;;;;;;;6.57;2.63;;;14.30;99.90;;;;;;5006186;28;20050;-71
2022/09/01 05:53:24;;;;;;;5.13;2.55;;;14.40;99.90;;;;;;4994739;28;20048;-73
2022/09/01 05:55:55;;;;;;;5.07;2.45;;;14.40;99.90;;;;;;4998405;28;20054;-73
2022/09/01 05:58:26;;;;;;;3.72;2.38;;;14.50;99.90;;;;;;5009244;28;20057;-73
2022/09/01 06:00:54;;;;;;;8.02;2.50;;;14.50;99.90;;;;;;5031466;28;20049;-72
2022/09/01 06:03:23;;;;;;;5.82;2.58;;;14.60;99.90;;;;;;5028560;28;20108;-71
2022/09/01 06:05:51;;;;;;;3.95;2.30;;;14.60;99.90;;;;;;5012802;28;20041;-73
2022/09/01 06:08:24;;;;;;;4.53;2.50;;;14.70;99.90;;;;;;5011254;28;20057;-73
2022/09/01 06:10:51;;;;;;;6.25;2.35;;;14.70;99.90;;;;;;5014527;28;20076;-72
2022/09/01 06:13:21;;;;;;;7.27;2.23;;;14.80;99.90;;;;;;5028818;28;20037;-72
2022/09/01 06:15:48;;;;;;;4.22;2.08;;;15.00;99.90;;;;;;5010510;28;20420;-72
2022/09/01 06:18:16;;;;;;;3.70;2.00;;;15.40;99.90;;;;;;5021266;28;20109;-73
2022/09/01 06:20:45;;;;;;;5.65;2.10;;;15.90;99.90;;;;;;5027212;28;20048;-72
2022/09/01 06:23:14;;;;;;;3.85;2.00;;;16.20;99.90;;;;;;5011367;28;20390;-73
2022/09/01 06:25:46;;;;;;;2.97;1.83;;;16.30;99.90;;;;;;5024239;28;20053;-72
2022/09/01 06:28:17;;;;;;;4.85;2.10;;;16.30;99.90;;;;;;5027147;28;20048;-72
2022/09/01 06:30:45;;;;;;;4.28;2.20;;;16.30;99.90;;;;;;5026798;28;20118;-72
2022/09/01 06:33:12;;;;;;;6.05;1.90;;;16.10;99.90;;;;;;5011456;28;20063;-73
2022/09/01 06:35:45;;;;;;;3.33;2.50;;;16.00;99.90;;;;;;5021571;28;20103;-72
2022/09/01 06:38:13;;;;;;;7.30;2.30;;;16.00;99.90;;;;;;5012396;28;20489;-73
2022/09/01 06:40:40;;;;;;;5.18;2.55;;;15.90;99.90;;;;;;5031225;28;20037;-74
2022/09/01 06:43:08;;;;;;;4.97;2.20;;;15.80;99.90;;;;;;4994737;28;20052;-75
2022/09/01 06:45:40;;;;;;;8.73;2.42;;;15.90;99.90;;;;;;5026624;28;20033;-74
2022/09/01 06:48:07;;;;;;;5.70;2.10;;;16.00;99.90;;;;;;5011170;28;20095;-73
2022/09/01 06:50:33;;;;;;;5.93;2.22;;;16.20;99.90;;;;;;5031001;28;20396;-74
2022/09/01 06:53:12;;;;;;;5.55;2.30;;;16.50;99.90;;;;;;5031477;28;20053;-73
2022/09/01 06:55:40;;;;;;;3.58;2.10;;;16.90;99.90;;;;;;5027217;28;20060;-73
2022/09/01 06:58:08;;;;;;;4.45;2.00;;;17.50;99.90;;;;;;5027888;28;20046;-71
2022/09/01 07:00:38;;;;;;;3.70;2.20;;;17.80;99.90;;;;;;5006603;28;20397;-74
2022/09/01 07:03:08;;;;;;;5.22;2.08;;;17.70;99.90;;;;;;4994585;28;20053;-72
2022/09/01 07:05:38;;;;;;;166.25;20.27;;;17.50;99.90;;;;;;5027625;28;20095;-74
2022/09/01 07:08:08;;;;;;;16.67;4.25;;;17.40;99.90;;;;;;5031889;28;20100;-74
2022/09/01 07:10:43;;;;;;;30.10;3.83;;;17.20;99.90;;;;;;4991169;28;20049;-73
2022/09/01 07:13:15;;;;;;;31.70;4.00;;;17.00;99.90;;;;;;5015167;28;20107;-73
2022/09/01 07:15:43;;;;;;;31.08;4.38;;;16.90;99.90;;;;;;5029734;28;20049;-73
2022/09/01 07:18:11;;;;;;;31.77;4.22;;;16.90;99.90;;;;;;5011613;28;20112;-72
2022/09/01 07:20:40;;;;;;;30.50;4.13;;;16.90;99.90;;;;;;5033221;28;20048;-72
2022/09/01 07:23:07;;;;;;;36.85;4.00;;;16.90;99.90;;;;;;5032487;28;20053;-71
2022/09/01 07:25:42;;;;;;;36.33;4.32;;;17.00;99.90;;;;;;5026165;28;20053;-71
2022/09/01 07:28:10;;;;;;;15.77;2.10;;;17.10;99.90;;;;;;5039695;28;20045;-70
2022/09/01 07:30:42;;;;;;;5.65;1.80;;;17.20;99.90;;;;;;5015398;28;20054;-71
2022/09/01 07:33:10;;;;;;;3.85;1.77;;;17.20;99.90;;;;;;5025527;28;20119;-74
2022/09/01 07:35:38;;;;;;;4.63;2.15;;;17.10;99.90;;;;;;5032341;28;20496;-72
2022/09/01 07:38:06;;;;;;;63.92;7.50;;;17.20;99.90;;;;;;5031876;28;20546;-72
2022/09/01 07:40:37;;;;;;;10.35;1.88;;;17.20;99.90;;;;;;4999891;28;20050;-72
2022/09/01 07:43:08;;;;;;;3.92;1.95;;;17.20;99.90;;;;;;5028774;28;20045;-72
2022/09/01 07:45:46;;;;;;;3.95;1.90;;;17.30;99.90;;;;;;4999017;28;20049;-72
2022/09/01 07:48:13;;;;;;;3.42;1.88;;;17.40;99.90;;;;;;5036041;28;20096;-71
2022/09/01 07:50:46;;;;;;;4.43;1.73;;;17.50;99.90;;;;;;5023879;28;20050;-73
2022/09/01 07:53:22;;;;;;;7.82;1.90;;;17.50;99.90;;;;;;4998645;28;20046;-74
2022/09/01 07:55:50;;;;;;;3.53;1.90;;;17.60;99.90;;;;;;5029348;28;20048;-72
2022/09/01 07:58:17;;;;;;;3.55;1.88;;;17.70;99.90;;;;;;5023132;28;20347;-70
2022/09/01 08:00:48;;;;;;;9.18;2.15;;;17.80;99.90;;;;;;5026920;28;20117;-71
2022/09/01 08:03:16;;;;;;;31.98;6.00;;;18.10;99.90;;;;;;5012047;28;20041;-72
2022/09/01 08:05:42;;;;;;;;;;;18.50;99.90;;;;;;5038453;28;20042;-71
2022/09/01 08:08:08;;;;;;;41.20;5.03;;;18.80;99.90;;;;;;5023117;28;20393;-72
2022/09/01 08:10:39;;;;;;;10.02;1.98;;;19.00;99.90;;;;;;5027873;28;20066;-72
2022/09/01 08:13:09;;;;;;;7.18;1.58;;;19.10;99.90;;;;;;4991922;28;20052;-72
2022/09/01 08:15:36;;;;;;;3.50;1.60;;;19.00;99.90;;;;;;5012148;28;20409;-71
2022/09/01 08:18:02;;;;;;;23.40;3.25;;;18.90;99.90;;;;;;5024326;28;20084;-71
2022/09/01 08:20:29;;;;;;;58.63;7.30;;;18.80;99.90;;;;;;5034392;28;20103;-72
2022/09/01 08:22:55;;;;;;;15.98;2.42;;;18.70;99.90;;;;;;5007932;28;20512;-72
2022/09/01 08:25:23;;;;;;;32.65;4.82;;;18.70;99.90;;;;;;5013421;28;20041;-71
2022/09/01 08:27:51;;;;;;;133.75;13.52;;;18.60;99.90;;;;;;5030601;28;20116;-72
2022/09/01 08:30:17;;;;;;;22.67;2.58;;;18.60;99.90;;;;;;5010858;28;20041;-73
2022/09/01 08:32:46;;;;;;;6.78;1.70;;;18.60;99.90;;;;;;5032481;28;20048;-74
2022/09/01 08:35:14;;;;;;;7.35;1.90;;;18.80;99.90;;;;;;5032986;28;20474;-74
2022/09/01 08:37:41;;;;;;;2.60;1.52;;;18.90;99.90;;;;;;5035956;28;20044;-72
2022/09/01 08:40:10;;;;;;;8.85;1.98;;;19.20;99.90;;;;;;5015073;28;20432;-73
2022/09/01 08:42:56;;;;;;;16.17;9.02;;;19.60;99.90;;;;;;5020475;28;20107;-73
2022/09/01 08:45:46;;;;;;;3.85;1.67;;;19.90;99.90;;;;;;5029439;28;20052;-73
2022/09/01 08:48:39;;;;;;;9.88;1.67;;;20.20;99.90;;;;;;5026533;28;20045;-72
2022/09/01 08:51:33;;;;;;;6.22;1.70;;;20.40;99.90;;;;;;5030828;28;20045;-73
2022/09/01 08:54:28;;;;;;;4.47;1.40;;;20.50;99.90;;;;;;5017587;28;20488;-72
2022/09/01 08:56:58;;;;;;;4.53;1.50;;;20.60;99.80;;;;;;5007632;28;20461;-71
2022/09/01 08:59:25;;;;;;;3.00;1.35;;;20.80;99.40;;;;;;5010481;28;20049;-72
2022/09/01 09:02:10;;;;;;;6.05;1.60;;;21.00;99.60;;;;;;5017995;28;20041;-71
2022/09/01 09:05:08;;;;;;;5.10;1.50;;;21.20;99.50;;;;;;5031697;28;20190;-73
2022/09/01 09:07:39;;;;;;;7.75;1.90;;;21.50;98.80;;;;;;5018889;28;20493;-72
2022/09/01 09:10:11;;;;;;;4.07;1.33;;;21.60;98.60;;;;;;5031765;28;20486;-70
2022/09/01 09:13:00;;;;;;;4.57;1.58;;;21.80;98.50;;;;;;5017292;28;20488;-73
2022/09/01 09:15:38;;;;;;;;;;;21.90;97.70;;;;;;5011874;28;20053;-71
2022/09/01 09:18:19;;;;;;;9.20;1.63;;;22.00;96.80;;;;;;5018400;28;20391;-70
2022/09/01 09:20:44;;;;;;;15.68;1.98;;;22.00;96.00;;;;;;5030942;28;20042;-72
2022/09/01 09:23:35;;;;;;;4.20;1.42;;;22.00;96.50;;;;;;5017821;28;20481;-71
2022/09/01 09:26:03;;;;;;;7.40;1.52;;;22.20;96.00;;;;;;5035202;28;20041;-71
2022/09/01 09:28:28;;;;;;;4.55;1.40;;;22.20;96.20;;;;;;5035714;28;20053;-70
2022/09/01 09:31:30;;;;;;;18.35;2.70;;;22.40;96.10;;;;;;5025843;28;20052;-72
2022/09/01 09:33:57;;;;;;;4.55;1.50;;;22.40;95.30;;;;;;5032276;28;20100;-73
2022/09/01 09:36:30;;;;;;;4.97;1.63;;;22.50;95.80;;;;;;5039351;28;20107;-71
2022/09/01 09:39:16;;;;;;;3.83;1.30;;;22.60;95.50;;;;;;5018209;28;20094;-71
2022/09/01 09:41:46;;;;;;;3.75;1.58;;;22.70;95.00;;;;;;5038188;28;20043;-72
2022/09/01 09:44:29;;;;;;;5.80;1.50;;;22.70;94.70;;;;;;4999552;28;20110;-72
2022/09/01 09:47:00;;;;;;;2.25;1.10;;;22.80;94.10;;;;;;5031396;28;20053;-71
2022/09/01 09:49:31;;;;;;;4.22;1.20;;;22.90;93.60;;;;;;5016983;28;20057;-72
2022/09/01 09:52:14;;;;;;;1.92;1.15;;;23.10;92.40;;;;;;5018135;28;20053;-71
2022/09/01 09:55:04;;;;;;;3.33;1.38;;;23.00;91.90;;;;;;5023555;28;20052;-71
2022/09/01 09:57:36;;;;;;;3.67;1.00;;;23.10;92.50;;;;;;5043129;28;20080;-70
2022/09/01 10:00:17;;;;;;;2.80;1.10;;;23.20;91.90;;;;;;5033265;28;20045;-70
2022/09/01 10:02:45;;;;;;;3.50;1.20;;;23.30;91.80;;;;;;5033176;28;20041;-73
2022/09/01 10:05:37;;;;;;;3.97;1.15;;;23.40;91.20;;;;;;5031894;28;20129;-72
2022/09/01 10:08:22;;;;;;;4.07;1.10;;;23.50;89.90;;;;;;5014100;28;20471;-72
2022/09/01 10:10:50;;;;;;;2.22;1.05;;;23.60;90.60;;;;;;5038450;28;20133;-72
2022/09/01 10:13:25;;;;;;;5.40;1.40;;;23.70;89.70;;;;;;4999183;28;20396;-73
2022/09/01 10:15:57;;;;;;;5.82;1.50;;;23.80;89.70;;;;;;5027754;28;20053;-74
2022/09/01 10:18:38;;;;;;;2.88;1.13;;;24.00;89.40;;;;;;5021519;28;20045;-72
2022/09/01 10:21:24;;;;;;;3.22;1.38;;;24.20;88.80;;;;;;5014941;28;20121;-71
2022/09/01 10:23:53;;;;;;;6.53;1.45;;;24.30;88.00;;;;;;5034159;28;20497;-72
2022/09/01 10:26:26;;;;;;;2.72;1.40;;;24.50;86.10;;;;;;5013363;28;20263;-72
2022/09/01 10:29:01;;;;;;;3.22;1.50;;;24.50;83.50;;;;;;5031568;28;20109;-71
2022/09/01 10:31:28;;;;;;;5.15;1.30;;;24.50;85.40;;;;;;5033698;28;20072;-73
2022/09/01 10:33:55;;;;;;;5.70;1.20;;;24.60;84.10;;;;;;4998162;28;20050;-71
2022/09/01 10:36:24;;;;;;;6.15;1.23;;;24.70;83.10;;;;;;5030354;28;20093;-72
2022/09/01 10:38:50;;;;;;;4.05;1.40;;;24.90;82.40;;;;;;5006493;28;20540;-73
2022/09/01 10:41:43;;;;;;;1.85;1.02;;;25.00;82.30;;;;;;5034471;28;20034;-73
2022/09/01 10:44:35;;;;;;;2.90;1.25;;;25.20;79.80;;;;;;5031899;28;20041;-73
2022/09/01 10:47:25;;;;;;;1.52;1.10;;;25.20;78.20;;;;;;5014362;28;20136;-73
2022/09/01 10:49:50;;;;;;;1.92;1.10;;;25.50;75.20;;;;;;5029115;28;20053;-73
2022/09/01 10:52:41;;;;;;;2.85;1.20;;;25.20;76.30;;;;;;5031081;28;20517;-72
2022/09/01 10:55:44;;;;;;;3.22;1.02;;;24.80;75.20;;;;;;5019420;28;20064;-73
2022/09/01 10:58:24;;;;;;;2.92;1.10;;;24.40;76.60;;;;;;4975748;28;20042;-74
2022/09/01 11:00:52;;;;;;;3.05;1.00;;;24.30;75.00;;;;;;5024835;28;20053;-72
2022/09/01 11:03:19;;;;;;;3.30;1.00;;;24.00;75.60;;;;;;5022046;28;20085;-74
2022/09/01 11:05:54;;;;;;;3.33;1.20;;;23.70;76.20;;;;;;4982180;28;20106;-71
2022/09/01 11:08:47;;;;;;;6.97;1.10;;;23.50;76.60;;;;;;5027009;28;20444;-72
2022/09/01 11:11:38;;;;;;;3.28;1.20;;;23.40;78.80;;;;;;5025398;28;20049;-73
2022/09/01 11:14:18;;;;;;;2.05;1.00;;;23.80;77.80;;;;;;5037326;28;20093;-71
2022/09/01 11:17:15;;;;;;;2.53;1.02;;;24.40;76.20;;;;;;5009066;28;20041;-72
2022/09/01 11:19:45;;;;;;;3.83;1.05;;;24.80;72.50;;;;;;5018823;28;20052;-73
2022/09/01 11:22:53;;;;;;;3.67;1.38;;;25.20;73.20;;;;;;5017255;28;20501;-71
2022/09/01 11:25:47;;;;;;;2.55;1.00;;;24.80;71.70;;;;;;5005548;28;20061;-73
2022/09/01 11:28:45;;;;;;;1.35;1.00;;;24.40;72.80;;;;;;4996582;28;20041;-72
2022/09/01 11:31:37;;;;;;;2.13;1.10;;;24.00;73.00;;;;;;5005094;28;20103;-73
2022/09/01 11:34:18;;;;;;;4.90;1.10;;;24.30;71.70;;;;;;5011310;28;20052;-73
2022/09/01 11:36:46;;;;;;;2.13;0.90;;;24.60;72.10;;;;;;5030820;28;20558;-73
2022/09/01 11:39:17;;;;;;;1.98;1.13;;;24.80;70.80;;;;;;5033694;28;20085;-72
2022/09/01 11:42:15;;;;;;;2.00;1.10;;;24.60;69.50;;;;;;5033267;28;20089;-71
2022/09/01 11:44:53;;;;;;;10.30;1.42;;;24.20;70.40;;;;;;5021104;28;20057;-73
2022/09/01 11:47:44;;;;;;;6.10;1.20;;;23.80;70.60;;;;;;5005845;28;20050;-72
2022/09/01 11:50:35;;;;;;;3.63;1.48;;;23.50;70.50;;;;;;5015236;28;20037;-72
2022/09/01 11:53:09;;;;;;;3.30;0.93;;;23.70;71.70;;;;;;5032044;28;20072;-71
2022/09/01 11:55:44;;;;;;;4.47;1.13;;;23.60;70.80;;;;;;4999817;28;20155;-73
2022/09/01 11:58:33;;;;;;;1.42;0.82;;;23.30;71.20;;;;;;5020769;28;20089;-71
2022/09/01 12:01:19;;;;;;;3.17;1.20;;;23.40;71.90;;;;;;5024561;28;20165;-71
2022/09/01 12:03:47;;;;;;;6.63;1.27;;;23.50;71.60;;;;;;5016103;28;20053;-71
2022/09/01 12:06:23;;;;;;;3.75;1.33;;;23.30;71.60;;;;;;5018932;28;20623;-72
2022/09/01 12:09:01;;;;;;;3.45;1.20;;;23.10;71.60;;;;;;5031120;28;20399;-73
2022/09/01 12:11:35;;;;;;;1.98;1.00;;;23.00;72.20;;;;;;5013889;28;20045;-72
2022/09/01 12:14:03;;;;;;;3.63;1.20;;;23.50;72.10;;;;;;5023727;28;20143;-73
2022/09/01 12:16:33;;;;;;;3.03;1.20;;;24.00;71.90;;;;;;5030155;28;20042;-70
2022/09/01 12:19:00;;;;;;;8.00;1.50;;;24.60;71.70;;;;;;5017733;28;20049;-72
2022/09/01 12:21:41;;;;;;;3.78;1.30;;;25.20;71.20;;;;;;5015650;28;20048;-71
2022/09/01 12:24:15;;;;;;;2.65;1.23;;;25.30;66.90;;;;;;5036432;28;20049;-72
2022/09/01 12:26:44;;;;;;;8.30;1.48;;;25.10;67.50;;;;;;5034624;28;20456;-72
2022/09/01 12:29:12;;;;;;;2.95;1.00;;;24.80;68.40;;;;;;5017863;28;20126;-72
2022/09/01 12:31:42;;;;;;;4.22;1.33;;;24.50;69.20;;;;;;5034600;28;20505;-71
2022/09/01 12:34:24;;;;;;;3.75;1.17;;;24.80;69.60;;;;;;5029110;28;20053;-72
2022/09/01 12:37:10;;;;;;;3.05;1.40;;;25.30;67.90;;;;;;5007819;28;20132;-71
2022/09/01 12:39:42;;;;;;;2.95;1.48;;;25.70;66.80;;;;;;5019899;28;20056;-71
2022/09/01 12:42:20;;;;;;;3.50;1.20;;;26.00;66.70;;;;;;5038855;28;20046;-72
2022/09/01 12:44:58;;;;;;;2.15;1.08;;;26.30;66.20;;;;;;5020576;28;20042;-73
2022/09/01 12:47:34;;;;;;;4.88;1.30;;;26.60;65.40;;;;;;5027084;28;20052;-72
2022/09/01 12:50:16;;;;;;;2.90;1.35;;;26.90;65.40;;;;;;5013014;28;20060;-73
2022/09/01 12:52:47;;;;;;;3.30;1.00;;;27.10;64.10;;;;;;5010960;28;20049;-73
2022/09/01 12:55:18;;;;;;;1.20;0.90;;;27.30;63.10;;;;;;5036043;28;20147;-72
2022/09/01 12:57:56;;;;;;;3.50;1.10;;;27.40;62.80;;;;;;5035746;28;20049;-73
2022/09/01 13:00:27;;;;;;;2.05;1.13;;;27.40;62.60;;;;;;5024254;28;20045;-73
2022/09/01 13:03:04;;;;;;;1.50;0.90;;;27.30;62.30;;;;;;4996728;28;20041;-74
2022/09/01 13:05:39;;;;;;;5.22;1.15;;;27.00;62.70;;;;;;5032355;28;20045;-72
2022/09/01 13:08:15;;;;;;;4.55;1.10;;;26.60;62.70;;;;;;5031097;28;20085;-72
2022/09/01 13:10:47;;;;;;;6.65;1.20;;;26.70;62.70;;;;;;5012944;28;20041;-72
2022/09/01 13:13:15;;;;;;;4.45;1.20;;;26.50;62.30;;;;;;5027002;28;20045;-72
2022/09/01 13:15:46;;;;;;;2.28;1.20;;;26.40;63.50;;;;;;5033630;28;20047;-71
2022/09/01 13:18:14;;;;;;;3.92;1.15;;;26.10;63.30;;;;;;5027370;28;20103;-72
2022/09/01 13:20:40;;;;;;;3.80;1.05;;;26.20;63.80;;;;;;5027071;28;20046;-72